Coalton, Oklahoma
Current Conditions -  °F | °C
As of 8:35 AM on Sunday 23 Nov 2014 (Local Time) from KOKM Reporting Station
Overcast Overcast  
Wind Chill: 57°   Ceiling: 1000
Heat Index: 57°   Visibility: 10mi
Dew Point: 56°   Wind: 12mph
Humidity: 94%   Direction: 160°SSE
Pressure: 29.48"   Gusts: 18mph
Location:  35.4729°N, 95.9709°W
Report Text: KOKM 231435Z AUTO 16010G16KT 10SM OVC010 14/13 A2948 RMK AO2 T01410132
Loading
Personal Weather Stations






























Interactive Weather Map New forecast layout! Learn more

10-Day Weather Forecast

Advertisements
Track Severe Weather on mobile